Time;durP1;ratioP1;P1;durP2;ratioP2;P2;SDS_P1;SDS_P2;PMS_P1;PMS_P2;Temp;Humidity;BMP_temperature;BMP_pressure;BME280_temperature;BME280_humidity;BME280_pressure;Samples;Min_cycle;Max_cycle;Signal;HPM_P1;HPM_P2
2023/04/07 00:01:30;;;;;;;;;;;7.00;99.90;;;;;;5095150;28;19916;-71
2023/04/07 00:03:55;;;;;;;;;;;6.90;99.90;;;;;;5093414;28;19998;-71
2023/04/07 00:06:21;;;;;;;;;;;6.80;99.90;;;;;;5093216;28;20410;-71
2023/04/07 00:08:46;;;;;;;;;;;6.80;99.90;;;;;;5092761;28;20003;-70
2023/04/07 00:11:12;;;;;;;;;;;6.80;99.90;;;;;;5094152;28;19958;-72
2023/04/07 00:13:38;;;;;;;;;;;6.80;99.90;;;;;;5094758;28;19908;-73
2023/04/07 00:16:04;;;;;;;;;;;6.80;99.90;;;;;;5092952;28;20382;-71
2023/04/07 00:18:29;;;;;;;;;;;6.80;99.90;;;;;;5092948;28;20286;-71
2023/04/07 00:20:55;;;;;;;;;;;6.80;99.90;;;;;;5093145;28;19908;-71
2023/04/07 00:23:21;;;;;;;;;;;6.80;99.90;;;;;;5094675;28;19946;-71
2023/04/07 00:25:47;;;;;;;;;;;6.70;99.90;;;;;;5094266;28;19912;-72
2023/04/07 00:28:12;;;;;;;;;;;6.60;99.90;;;;;;5094848;28;19912;-72
2023/04/07 00:30:38;;;;;;;;;;;6.60;99.90;;;;;;5094863;28;19953;-70
2023/04/07 00:33:04;;;;;;;;;;;6.60;99.90;;;;;;5093325;28;19936;-71
2023/04/07 00:35:30;;;;;;;;;;;6.60;99.90;;;;;;5092835;28;19912;-72
2023/04/07 00:37:55;;;;;;;;;;;6.60;99.90;;;;;;5094556;28;19947;-72
2023/04/07 00:40:21;;;;;;;;;;;6.60;99.90;;;;;;5095196;28;20003;-72
2023/04/07 00:42:47;;;;;;;;;;;6.60;99.90;;;;;;5094561;28;19908;-71
2023/04/07 00:45:12;;;;;;;;;;;6.60;99.90;;;;;;5094087;28;20018;-71
2023/04/07 00:47:38;;;;;;;;;;;6.50;99.90;;;;;;5094066;28;19946;-72
2023/04/07 00:50:04;;;;;;;;;;;6.50;99.90;;;;;;5094402;28;20389;-72
2023/04/07 00:52:31;;;;;;;;;;;6.50;99.90;;;;;;5092497;28;20229;-72
2023/04/07 00:54:58;;;;;;;;;;;6.50;99.90;;;;;;5092663;28;19943;-71
2023/04/07 00:57:24;;;;;;;;;;;6.40;99.90;;;;;;5094093;28;19962;-73
2023/04/07 00:59:50;;;;;;;;;;;6.40;99.90;;;;;;5093111;28;19912;-72
2023/04/07 01:02:19;;;;;;;;;;;6.40;99.90;;;;;;5093957;28;19998;-72
2023/04/07 01:04:54;;;;;;;;;;;6.30;99.90;;;;;;5092987;28;19908;-71
2023/04/07 01:07:26;;;;;;;;;;;6.30;99.90;;;;;;5093184;28;19916;-72
2023/04/07 01:10:03;;;;;;;;;;;6.30;99.90;;;;;;5094202;28;20161;-71
2023/04/07 01:12:43;;;;;;;;;;;6.30;99.90;;;;;;5093071;28;19908;-72
2023/04/07 01:15:11;;;;;;;;;;;6.30;99.90;;;;;;5096120;28;19916;-72
2023/04/07 01:17:41;;;;;;;;;;;6.30;99.90;;;;;;5098145;28;19954;-72
2023/04/07 01:20:10;;;;;;;;;;;6.30;99.90;;;;;;5096695;28;19908;-72
2023/04/07 01:22:46;;;;;;;;;;;6.20;99.90;;;;;;5097940;28;19908;-72
2023/04/07 01:25:31;;;;;;;;;;;6.30;99.90;;;;;;5097959;28;19927;-72
2023/04/07 01:28:14;;;;;;;;;;;6.20;99.90;;;;;;5097779;28;20453;-71
2023/04/07 01:30:42;;;;;;;;;;;6.20;99.90;;;;;;5097551;28;20002;-71
2023/04/07 01:33:08;;;;;;;;;;;6.20;99.90;;;;;;5097739;28;19909;-71
2023/04/07 01:35:35;;;;;;;;;;;6.20;99.90;;;;;;5097255;28;19947;-71
2023/04/07 01:38:02;;;;;;;;;;;6.20;99.90;;;;;;5097844;28;19915;-72
2023/04/07 01:40:28;;;;;;;;;;;6.30;99.90;;;;;;5098022;28;19948;-72
2023/04/07 01:42:55;;;;;;;;;;;6.30;99.90;;;;;;5097676;28;19912;-72
2023/04/07 01:45:21;;;;;;;;;;;6.30;99.90;;;;;;5096968;28;20297;-72
2023/04/07 01:47:48;;;;;;;;;;;6.20;99.90;;;;;;5095797;28;19909;-71
2023/04/07 01:50:14;;;;;;;;;;;6.30;99.90;;;;;;5096112;28;19914;-73
2023/04/07 01:52:39;;;;;;;;;;;6.20;99.90;;;;;;5097491;28;19912;-72
2023/04/07 01:55:05;;;;;;;;;;;6.20;99.90;;;;;;5097002;28;19944;-71
2023/04/07 01:57:31;;;;;;;;;;;6.20;99.90;;;;;;5096179;28;19934;-71
2023/04/07 01:59:57;;;;;;;;;;;6.10;99.90;;;;;;5096918;28;20380;-71
2023/04/07 02:02:23;;;;;;;;;;;6.10;99.90;;;;;;5096239;28;19963;-72
2023/04/07 02:04:55;;;;;;;;;;;6.10;99.90;;;;;;5095325;28;19961;-72
2023/04/07 02:07:29;;;;;;;;;;;6.10;99.90;;;;;;5096564;28;19916;-72
2023/04/07 02:09:56;;;;;;;;;;;6.20;99.90;;;;;;5095492;28;19908;-72
2023/04/07 02:12:22;;;;;;;;;;;6.10;99.90;;;;;;5096691;28;19946;-70
2023/04/07 02:14:48;;;;;;;;;;;6.00;99.90;;;;;;5095179;28;19967;-72
2023/04/07 02:17:15;;;;;;;;;;;6.10;99.90;;;;;;5096591;28;20384;-72
2023/04/07 02:19:41;;;;;;;;;;;6.10;99.90;;;;;;5096966;28;19965;-71
2023/04/07 02:22:08;;;;;;;;;;;6.10;99.90;;;;;;5094873;28;19919;-72
2023/04/07 02:24:33;;;;;;;;;;;6.10;99.90;;;;;;5096146;28;19916;-72
2023/04/07 02:27:00;;;;;;;;;;;6.00;99.90;;;;;;5093844;28;20369;-72
2023/04/07 02:29:26;;;;;;;;;;;6.00;99.90;;;;;;5095279;28;19919;-72
2023/04/07 02:31:52;;;;;;;;;;;6.00;99.90;;;;;;5096444;28;19908;-71
2023/04/07 02:34:18;;;;;;;;;;;6.00;99.90;;;;;;5096124;28;20431;-71
2023/04/07 02:36:43;;;;;;;;;;;6.00;99.90;;;;;;5095304;28;19915;-71
2023/04/07 02:39:09;;;;;;;;;;;6.00;99.90;;;;;;5095304;28;20102;-72
2023/04/07 02:41:35;;;;;;;;;;;5.90;99.90;;;;;;5096678;28;19999;-72
2023/04/07 02:44:01;;;;;;;;;;;6.00;99.90;;;;;;5096307;28;19947;-72
2023/04/07 02:46:27;;;;;;;;;;;6.10;99.90;;;;;;5096122;28;19917;-71
2023/04/07 02:48:52;;;;;;;;;;;6.00;99.90;;;;;;5094795;28;19987;-72
2023/04/07 02:51:18;;;;;;;;;;;6.00;99.90;;;;;;5096349;28;19915;-72
2023/04/07 02:53:44;;;;;;;;;;;6.00;99.90;;;;;;5095628;28;19951;-73
2023/04/07 02:56:10;;;;;;;;;;;6.10;99.90;;;;;;5095609;28;19975;-72
2023/04/07 02:58:35;;;;;;;;;;;6.00;99.90;;;;;;5095623;28;19915;-71
2023/04/07 03:01:01;;;;;;;;;;;6.00;99.90;;;;;;5094753;28;19919;-71
2023/04/07 03:03:27;;;;;;;;;;;6.00;99.90;;;;;;5096002;28;19908;-71
2023/04/07 03:05:53;;;;;;;;;;;5.90;99.90;;;;;;5094430;28;20366;-73
2023/04/07 03:08:18;;;;;;;;;;;5.80;99.90;;;;;;5095868;28;19908;-71
2023/04/07 03:10:44;;;;;;;;;;;5.70;99.90;;;;;;5095788;28;19979;-71
2023/04/07 03:13:11;;;;;;;;;;;5.70;99.90;;;;;;5095853;28;19916;-72
2023/04/07 03:15:37;;;;;;;;;;;5.70;99.90;;;;;;5095349;28;19984;-72
2023/04/07 03:18:02;;;;;;;;;;;5.60;99.90;;;;;;5095351;28;19927;-71
2023/04/07 03:20:28;;;;;;;;;;;5.70;99.90;;;;;;5094083;28;19908;-71
2023/04/07 03:22:54;;;;;;;;;;;5.70;99.90;;;;;;5095781;28;19912;-71
2023/04/07 03:25:20;;;;;;;;;;;5.80;99.90;;;;;;5094132;28;19998;-71
2023/04/07 03:27:45;;;;;;;;;;;5.80;99.90;;;;;;5094059;28;19908;-71
2023/04/07 03:30:11;;;;;;;;;;;5.70;99.90;;;;;;5092493;28;19957;-71
2023/04/07 03:32:37;;;;;;;;;;;5.70;99.90;;;;;;5094858;28;19947;-71
2023/04/07 03:35:02;;;;;;;;;;;5.70;99.90;;;;;;5095040;28;19908;-71
2023/04/07 03:37:28;;;;;;;;;;;5.70;99.90;;;;;;5095458;28;19972;-71
2023/04/07 03:39:54;;;;;;;;;;;5.70;99.90;;;;;;5095080;28;19908;-71
2023/04/07 03:42:20;;;;;;;;;;;5.70;99.90;;;;;;5095043;28;19912;-70
2023/04/07 03:44:46;;;;;;;;;;;5.70;99.90;;;;;;5093467;28;20362;-72
2023/04/07 03:47:11;;;;;;;;;;;5.70;99.90;;;;;;5095034;28;19912;-71
2023/04/07 03:49:37;;;;;;;;;;;5.70;99.90;;;;;;5095376;28;19915;-71
2023/04/07 03:52:04;;;;;;;;;;;5.70;99.90;;;;;;5093594;28;19909;-71
2023/04/07 03:54:29;;;;;;;;;;;5.70;99.90;;;;;;5094800;28;20011;-72
2023/04/07 03:56:56;;;;;;;;;;;5.70;99.90;;;;;;5094855;28;20377;-72
2023/04/07 03:59:22;;;;;;;;;;;5.80;99.90;;;;;;5093675;28;20284;-72
2023/04/07 04:01:47;;;;;;;;;;;5.80;99.90;;;;;;5093682;28;19912;-71
2023/04/07 04:04:13;;;;;;;;;;;5.80;99.90;;;;;;5094170;28;19908;-72
2023/04/07 04:06:39;;;;;;;;;;;5.90;99.90;;;;;;5093391;28;20393;-71
2023/04/07 04:09:04;;;;;;;;;;;5.90;99.90;;;;;;5093330;28;19915;-72
2023/04/07 04:11:30;;;;;;;;;;;5.90;99.90;;;;;;5094360;28;19919;-71
2023/04/07 04:13:56;;;;;;;;;;;5.80;99.90;;;;;;5094249;28;19974;-71
2023/04/07 04:16:21;;;;;;;;;;;5.80;99.90;;;;;;5094734;28;20401;-72
2023/04/07 04:18:47;;;;;;;;;;;5.90;99.90;;;;;;5093174;28;20281;-71
2023/04/07 04:21:13;;;;;;;;;;;5.70;99.90;;;;;;5094839;28;19908;-71
2023/04/07 04:23:38;;;;;;;;;;;5.70;99.90;;;;;;5094954;28;19951;-72
2023/04/07 04:26:04;;;;;;;;;;;5.70;99.90;;;;;;5094691;28;19923;-72
2023/04/07 04:28:30;;;;;;;;;;;5.70;99.90;;;;;;5094871;28;19942;-71
2023/04/07 04:30:55;;;;;;;;;;;5.60;99.90;;;;;;5094806;28;20088;-71
2023/04/07 04:33:21;;;;;;;;;;;5.60;99.90;;;;;;5094811;28;19908;-71
2023/04/07 04:35:47;;;;;;;;;;;5.60;99.90;;;;;;5094155;28;19908;-72
2023/04/07 04:38:12;;;;;;;;;;;5.60;99.90;;;;;;5093535;28;19908;-72
2023/04/07 04:40:38;;;;;;;;;;;5.50;99.90;;;;;;5093225;28;19908;-73
2023/04/07 04:43:08;;;;;;;;;;;5.60;99.90;;;;;;5094239;28;19927;-71
2023/04/07 04:45:34;;;;;;;;;;;5.60;99.90;;;;;;5093797;28;19912;-71
2023/04/07 04:48:00;;;;;;;;;;;5.60;99.90;;;;;;5094528;28;19912;-71
2023/04/07 04:50:25;;;;;;;;;;;5.60;99.90;;;;;;5093743;28;20285;-71
2023/04/07 04:52:51;;;;;;;;;;;5.60;99.90;;;;;;5092908;28;19908;-71
2023/04/07 04:55:17;;;;;;;;;;;5.60;99.90;;;;;;5094072;28;20402;-73
2023/04/07 04:57:42;;;;;;;;;;;5.50;99.90;;;;;;5092847;28;20332;-71
2023/04/07 05:00:08;;;;;;;;;;;5.50;99.90;;;;;;5092999;28;19943;-71
2023/04/07 05:02:35;;;;;;;;;;;5.50;99.90;;;;;;5093853;28;19954;-71
2023/04/07 05:05:01;;;;;;;;;;;5.50;99.90;;;;;;5091909;28;20326;-71
2023/04/07 05:07:26;;;;;;;;;;;5.50;99.90;;;;;;5092897;28;20007;-70
2023/04/07 05:09:52;;;;;;;;;;;5.60;99.90;;;;;;5092830;28;20405;-71
2023/04/07 05:12:18;;;;;;;;;;;5.70;99.90;;;;;;5093763;28;19909;-72
2023/04/07 05:14:43;;;;;;;;;;;5.70;99.90;;;;;;5092018;28;19908;-71
2023/04/07 05:17:09;;;;;;;;;;;5.80;99.90;;;;;;5092374;28;20134;-72
2023/04/07 05:19:35;;;;;;;;;;;5.80;99.90;;;;;;5094317;28;19961;-72
2023/04/07 05:22:00;;;;;;;;;;;5.90;99.90;;;;;;5093464;28;19909;-71
2023/04/07 05:24:27;;;;;;;;;;;6.00;99.90;;;;;;5091702;28;20316;-72
2023/04/07 05:26:52;;;;;;;;;;;6.10;99.90;;;;;;5094187;28;19912;-71
2023/04/07 05:29:18;;;;;;;;;;;6.00;99.90;;;;;;5093812;28;19961;-72
2023/04/07 05:31:44;;;;;;;;;;;6.10;99.90;;;;;;5093236;28;19908;-71
2023/04/07 05:34:10;;;;;;;;;;;6.10;99.90;;;;;;5093671;28;19913;-71
2023/04/07 05:36:35;;;;;;;;;;;6.20;99.90;;;;;;5093868;28;19915;-71
2023/04/07 05:39:01;;;;;;;;;;;6.20;99.90;;;;;;5092480;28;19912;-71
2023/04/07 05:41:27;;;;;;;;;;;6.20;99.90;;;;;;5092684;28;19915;-72
2023/04/07 05:43:52;;;;;;;;;;;6.20;99.90;;;;;;5092122;28;19908;-72
2023/04/07 05:46:18;;;;;;;;;;;6.40;99.90;;;;;;5093748;28;19912;-72
2023/04/07 05:48:44;;;;;;;;;;;6.50;99.90;;;;;;5091338;28;20340;-71
2023/04/07 05:51:10;;;;;;;;;;;6.60;99.90;;;;;;5091865;28;19919;-69
2023/04/07 05:53:35;;;;;;;;;;;6.70;99.90;;;;;;5093288;28;20321;-71
2023/04/07 05:56:01;;;;;;;;;;;6.80;99.90;;;;;;5092369;28;19908;-72
2023/04/07 05:58:27;;;;;;;;;;;7.00;99.90;;;;;;5093299;28;19908;-72
2023/04/07 06:00:52;;;;;;;;;;;7.10;99.90;;;;;;5092763;28;20380;-72
2023/04/07 06:03:18;;;;;;;;;;;7.20;99.90;;;;;;5096745;28;20158;-71
2023/04/07 06:05:47;;;;;;;;;;;7.30;99.90;;;;;;5095426;28;20267;-72
2023/04/07 06:08:12;;;;;;;;;;;7.50;99.90;;;;;;5097222;28;19914;-71
2023/04/07 06:10:40;;;;;;;;;;;7.60;99.90;;;;;;5097096;28;19908;-72
2023/04/07 06:13:06;;;;;;;;;;;7.80;99.90;;;;;;5097124;28;19908;-72
2023/04/07 06:15:31;;;;;;;;;;;7.80;99.90;;;;;;5096384;28;19909;-72
2023/04/07 06:17:57;;;;;;;;;;;7.90;99.90;;;;;;5096167;28;19912;-72
2023/04/07 06:20:23;;;;;;;;;;;8.00;99.90;;;;;;5095401;28;20010;-72
2023/04/07 06:22:48;;;;;;;;;;;8.10;99.90;;;;;;5096125;28;20445;-72
2023/04/07 06:25:14;;;;;;;;;;;8.30;99.90;;;;;;5093460;28;20416;-72
2023/04/07 06:27:40;;;;;;;;;;;8.30;99.90;;;;;;5094423;28;20060;-71
2023/04/07 06:30:06;;;;;;;;;;;8.40;99.90;;;;;;5096236;28;19908;-72
2023/04/07 06:32:32;;;;;;;;;;;8.60;99.90;;;;;;5095119;28;20445;-72
2023/04/07 06:34:57;;;;;;;;;;;8.70;99.90;;;;;;5095004;28;20280;-72
2023/04/07 06:37:24;;;;;;;;;;;9.00;99.90;;;;;;5094851;28;19909;-72
2023/04/07 06:39:50;;;;;;;;;;;9.20;99.90;;;;;;5094993;28;19912;-71
2023/04/07 06:42:16;;;;;;;;;;;9.30;99.90;;;;;;5095110;28;20349;-72
2023/04/07 06:44:41;;;;;;;;;;;9.40;99.90;;;;;;5095465;28;19973;-72
2023/04/07 06:47:07;;;;;;;;;;;9.50;99.90;;;;;;5095915;28;19916;-72
2023/04/07 06:49:33;;;;;;;;;;;9.60;99.90;;;;;;5094573;28;20283;-71
2023/04/07 06:51:59;;;;;;;;;;;9.70;99.90;;;;;;5096406;28;19919;-72
2023/04/07 06:54:25;;;;;;;;;;;9.70;99.90;;;;;;5096248;28;19908;-72
2023/04/07 06:56:50;;;;;;;;;;;9.80;99.90;;;;;;5096459;28;19912;-72
2023/04/07 06:59:16;;;;;;;;;;;9.90;99.90;;;;;;5095148;28;19908;-72
2023/04/07 07:01:42;;;;;;;;;;;10.10;99.90;;;;;;5094141;28;19908;-73
2023/04/07 07:04:08;;;;;;;;;;;10.20;99.90;;;;;;5092583;28;19916;-72
2023/04/07 07:06:34;;;;;;;;;;;10.30;99.90;;;;;;5093033;28;19912;-73
2023/04/07 07:09:01;;;;;;;;;;;10.40;99.90;;;;;;5094556;28;19912;-72
2023/04/07 07:11:27;;;;;;;;;;;10.40;99.90;;;;;;5092206;28;19958;-71
2023/04/07 07:13:52;;;;;;;;;;;10.50;99.90;;;;;;5093731;28;20289;-72
2023/04/07 07:16:18;;;;;;;;;;;10.60;99.90;;;;;;5092595;28;20316;-72
2023/04/07 07:18:44;;;;;;;;;;;10.80;99.90;;;;;;5094434;28;20282;-74
2023/04/07 07:21:10;;;;;;;;;;;11.00;99.90;;;;;;5093765;28;19912;-72
2023/04/07 07:23:36;;;;;;;;;;;11.00;99.90;;;;;;5093510;28;19959;-72
2023/04/07 07:26:01;;;;;;;;;;;10.90;99.90;;;;;;5091996;28;19952;-72
2023/04/07 07:28:28;;;;;;;;;;;10.90;99.90;;;;;;5093393;28;19919;-73
2023/04/07 07:30:53;;;;;;;;;;;10.90;99.90;;;;;;5100551;28;19920;-72
2023/04/07 07:33:21;;;;;;;;;;;11.00;99.90;;;;;;5094804;28;19908;-73
2023/04/07 07:35:47;;;;;;;;;;;11.00;99.90;;;;;;5098826;28;20496;-73
2023/04/07 07:38:13;;;;;;;;;;;11.10;99.90;;;;;;5094587;28;19908;-73
2023/04/07 07:40:39;;;;;;;;;;;11.30;99.90;;;;;;5095251;28;19931;-72
2023/04/07 07:43:05;;;;;;;;;;;11.30;99.90;;;;;;5095650;28;19953;-73
2023/04/07 07:45:31;;;;;;;;;;;11.30;99.90;;;;;;5094773;28;19912;-72
2023/04/07 07:47:56;;;;;;;;;;;11.40;99.90;;;;;;5096088;28;19930;-72
2023/04/07 07:50:22;;;;;;;;;;;11.40;99.90;;;;;;5094952;28;20356;-73
2023/04/07 07:52:48;;;;;;;;;;;11.60;99.90;;;;;;5093365;28;20430;-73
2023/04/07 07:55:13;;;;;;;;;;;11.60;99.90;;;;;;5093802;28;19954;-74
2023/04/07 07:57:39;;;;;;;;;;;11.70;99.90;;;;;;5094637;28;20386;-73
2023/04/07 08:00:05;;;;;;;;;;;11.70;99.90;;;;;;5092603;28;19908;-73
2023/04/07 08:02:32;;;;;;;;;;;11.80;99.90;;;;;;5093624;28;19923;-73
2023/04/07 08:04:58;;;;;;;;;;;11.80;99.90;;;;;;5094298;28;19908;-73
2023/04/07 08:07:24;;;;;;;;;;;11.90;99.90;;;;;;5093316;28;20399;-74
2023/04/07 08:09:50;;;;;;;;;;;11.90;99.90;;;;;;5093741;28;19912;-72
2023/04/07 08:12:15;;;;;;;;;;;12.00;99.90;;;;;;5094785;28;19908;-73
2023/04/07 08:14:41;;;;;;;;;;;12.00;99.90;;;;;;5094417;28;20366;-73
2023/04/07 08:17:07;;;;;;;;;;;12.00;99.90;;;;;;5094676;28;19951;-73
2023/04/07 08:19:32;;;;;;;;;;;12.00;99.90;;;;;;5093411;28;19957;-74
2023/04/07 08:21:58;;;;;;;;;;;12.00;99.90;;;;;;5093821;28;20125;-72
2023/04/07 08:24:24;;;;;;;;;;;12.00;99.90;;;;;;5093661;28;19938;-73
2023/04/07 08:26:49;;;;;;;;;;;12.10;99.90;;;;;;5094998;28;20366;-73
2023/04/07 08:29:15;;;;;;;;;;;12.20;99.90;;;;;;5094285;28;19919;-73
2023/04/07 08:31:41;;;;;;;;;;;12.30;99.90;;;;;;5093243;28;19908;-72
2023/04/07 08:34:06;;;;;;;;;;;12.30;99.90;;;;;;5094101;28;20223;-72
2023/04/07 08:36:32;;;;;;;;;;;12.50;99.90;;;;;;5093334;28;19915;-73
2023/04/07 08:39:00;;;;;;;;;;;12.50;99.90;;;;;;5094680;28;19909;-73
2023/04/07 08:41:32;;;;;;;;;;;12.60;99.90;;;;;;5093460;28;19912;-75
2023/04/07 08:43:59;;;;;;;;;;;12.60;99.90;;;;;;5092782;28;19908;-73
2023/04/07 08:46:25;;;;;;;;;;;12.60;99.90;;;;;;5070286;28;19969;-73
2023/04/07 08:48:51;;;;;;;;;;;12.60;99.90;;;;;;5065013;28;19925;-73
2023/04/07 08:51:24;;;;;;;;;;;12.70;99.90;;;;;;5058671;28;19935;-72
2023/04/07 08:53:51;;;;;;;;;;;12.70;99.90;;;;;;5068870;28;20333;-73
2023/04/07 08:56:17;;;;;;;;;;;12.80;99.90;;;;;;5070192;28;19919;-73
2023/04/07 08:58:47;;;;;;;;;;;12.70;99.90;;;;;;5052918;28;20362;-72
2023/04/07 09:01:13;;;;;;;;;;;12.80;99.90;;;;;;5071704;28;19908;-74
2023/04/07 09:03:39;;;;;;;;;;;12.80;99.90;;;;;;5073414;28;19955;-73
2023/04/07 09:06:04;;;;;;;;;;;12.70;99.90;;;;;;5064783;28;20355;-74
2023/04/07 09:08:30;;;;;;;;;;;12.70;99.90;;;;;;5058738;28;19928;-74
2023/04/07 09:10:56;;;;;;;;;;;12.80;99.90;;;;;;5067879;28;19908;-73
2023/04/07 09:13:23;;;;;;;;;;;12.90;99.90;;;;;;5073086;28;20335;-72
2023/04/07 09:15:49;;;;;;;;;;;12.90;99.90;;;;;;5069027;28;19915;-72
2023/04/07 09:18:15;;;;;;;;;;;12.90;99.90;;;;;;5071626;28;19913;-70
2023/04/07 09:20:56;;;;;;;;;;;13.00;99.90;;;;;;5069364;28;19995;-70
2023/04/07 09:23:32;;;;;;;;;;;13.00;99.90;;;;;;5060789;28;19925;-69
2023/04/07 09:25:58;;;;;;;;;;;13.00;99.90;;;;;;5067151;28;19917;-69
2023/04/07 09:28:24;;;;;;;;;;;13.00;99.90;;;;;;5062428;28;19913;-69
2023/04/07 09:30:53;;;;;;;;;;;13.10;99.90;;;;;;5070016;28;19966;-69
2023/04/07 09:33:29;;;;;;;;;;;13.20;99.90;;;;;;5059353;28;19909;-70
2023/04/07 09:35:55;;;;;;;;;;;13.20;99.90;;;;;;5068876;28;19944;-69
2023/04/07 09:38:21;;;;;;;;;;;13.30;99.90;;;;;;5060875;28;19928;-69
2023/04/07 09:40:50;;;;;;;;;;;13.40;99.90;;;;;;5058043;28;20003;-69
2023/04/07 09:43:17;;;;;;;;;;;13.40;99.90;;;;;;5056829;28;19951;-69
2023/04/07 09:45:43;;;;;;;;;;;13.40;99.90;;;;;;5060545;28;19999;-69
2023/04/07 09:48:19;;;;;;;;;;;13.50;99.90;;;;;;5060757;28;19999;-69
2023/04/07 09:50:48;;;;;;;;;;;13.60;99.90;;;;;;5057789;28;19922;-69
2023/04/07 09:53:17;;;;;;;;;;;13.60;99.90;;;;;;5063450;28;19912;-69
2023/04/07 09:55:43;;;;;;;;;;;13.70;99.90;;;;;;5061576;28;19944;-69
2023/04/07 09:58:13;;;;;;;;;;;13.90;99.90;;;;;;5057837;28;19909;-69
2023/04/07 10:00:40;;;;;;;;;;;13.80;99.90;;;;;;5057808;28;19920;-69
2023/04/07 10:03:06;;;;;;;;;;;13.90;99.90;;;;;;5057600;28;19935;-69
2023/04/07 10:05:33;;;;;;;;;;;13.90;99.90;;;;;;5060724;28;19963;-69
2023/04/07 10:08:00;;;;;;;;;;;14.00;99.90;;;;;;5062661;28;19913;-69
2023/04/07 10:10:27;;;;;;;;;;;14.10;99.90;;;;;;5059277;28;19970;-69
2023/04/07 10:12:54;;;;;;;;;;;14.20;99.90;;;;;;5058402;28;19913;-68
2023/04/07 10:15:20;;;;;;;;;;;14.10;99.90;;;;;;5074369;28;19949;-69
2023/04/07 10:17:47;;;;;;;;;;;14.30;99.90;;;;;;5056772;28;19913;-69
2023/04/07 10:20:13;;;;;;;;;;;14.40;99.90;;;;;;5065070;28;19935;-69
2023/04/07 10:22:41;;;;;;;;;;;14.30;99.90;;;;;;5058675;28;20023;-69
2023/04/07 10:25:11;;;;;;;;;;;14.20;99.90;;;;;;5056839;28;20011;-69
2023/04/07 10:27:41;;;;;;;;;;;14.30;99.90;;;;;;5057844;28;19940;-69
2023/04/07 10:30:13;;;;;;;;;;;14.30;99.90;;;;;;5060133;28;19909;-69
2023/04/07 10:32:45;;;;;;;;;;;14.30;99.90;;;;;;5059720;28;20306;-69
2023/04/07 10:35:11;;;;;;;;;;;14.40;99.90;;;;;;5063473;28;19916;-69
2023/04/07 10:37:36;;;;;;;;;;;14.30;99.90;;;;;;5059434;28;19995;-69
2023/04/07 10:40:17;;;;;;;;;;;14.40;99.90;;;;;;5056133;28;19919;-68
2023/04/07 10:42:44;;;;;;;;;;;14.40;99.90;;;;;;5056656;28;20352;-69
2023/04/07 10:45:11;;;;;;;;;;;14.50;99.90;;;;;;5057133;28;19924;-69
2023/04/07 10:47:56;;;;;;;;;;;14.50;99.90;;;;;;5057171;28;19913;-69
2023/04/07 10:50:22;;;;;;;;;;;14.60;99.90;;;;;;5057451;28;19916;-69
2023/04/07 10:53:04;;;;;;;;;;;14.50;99.90;;;;;;5057008;28;19916;-69
2023/04/07 10:55:39;;;;;;;;;;;14.40;99.90;;;;;;5055294;28;19954;-69
2023/04/07 10:58:19;;;;;;;;;;;14.40;99.90;;;;;;5057539;28;19909;-69
2023/04/07 11:01:14;;;;;;;;;;;14.40;99.90;;;;;;5066561;28;19912;-69
2023/04/07 11:03:41;;;;;;;;;;;14.30;99.90;;;;;;5056758;28;19916;-68
2023/04/07 11:06:07;;;;;;;;;;;14.40;99.90;;;;;;5061276;28;19967;-69
2023/04/07 11:08:37;;;;;;;;;;;14.50;99.90;;;;;;5060017;28;19909;-69
2023/04/07 11:11:07;;;;;;;;;;;14.60;99.90;;;;;;5066120;28;19920;-69
2023/04/07 11:13:40;;;;;;;;;;;14.70;99.90;;;;;;5058405;28;19913;-68
2023/04/07 11:16:06;;;;;;;;;;;14.70;99.90;;;;;;5062800;28;19913;-70
2023/04/07 11:18:32;;;;;;;;;;;14.90;99.90;;;;;;5055139;28;20034;-69
2023/04/07 11:20:58;;;;;;;;;;;15.10;99.90;;;;;;5060600;28;20007;-68
2023/04/07 11:23:25;;;;;;;;;;;15.30;99.90;;;;;;5061011;28;19917;-69
2023/04/07 11:25:52;;;;;;;;;;;15.20;99.90;;;;;;5063673;28;19920;-69
2023/04/07 11:28:18;;;;;;;;;;;15.10;99.90;;;;;;5056977;28;19995;-69
2023/04/07 11:30:45;;;;;;;;;;;15.10;99.90;;;;;;5061912;28;19917;-68
2023/04/07 11:33:21;;;;;;;;;;;15.00;99.90;;;;;;5058959;28;19935;-69
2023/04/07 11:36:06;;;;;;;;;;;15.00;99.90;;;;;;5056511;28;19915;-68
2023/04/07 11:38:36;;;;;;;;;;;15.00;99.90;;;;;;5060390;28;20011;-69
2023/04/07 11:41:12;;;;;;;;;;;15.20;99.90;;;;;;5061280;28;19912;-69
2023/04/07 11:43:40;;;;;;;;;;;15.20;99.90;;;;;;5057992;28;19912;-69
2023/04/07 11:46:07;;;;;;;;;;;15.20;99.90;;;;;;5069620;28;20023;-69
2023/04/07 11:48:34;;;;;;;;;;;15.20;99.90;;;;;;5062605;28;19912;-69
2023/04/07 11:51:00;;;;;;;;;;;15.10;99.90;;;;;;5061383;28;19939;-69
2023/04/07 11:53:27;;;;;;;;;;;14.80;99.90;;;;;;5067063;28;19920;-70
2023/04/07 11:56:02;;;;;;;;;;;14.80;99.90;;;;;;5068517;28;19913;-69
2023/04/07 11:58:28;;;;;;;;;;;14.90;99.90;;;;;;5068939;28;19912;-69
2023/04/07 12:01:03;;;;;;;;;;;14.90;99.90;;;;;;5060794;28;19923;-68
2023/04/07 12:03:29;;;;;;;;;;;14.90;99.90;;;;;;5070480;28;19920;-69
2023/04/07 12:05:55;;;;;;;;;;;14.80;99.90;;;;;;5064625;28;19924;-69
2023/04/07 12:08:35;;;;;;;;;;;14.80;99.90;;;;;;5068214;28;19912;-69
2023/04/07 12:11:04;;;;;;;;;;;14.80;99.90;;;;;;5067833;28;19917;-69
2023/04/07 12:13:30;;;;;;;;;;;14.80;99.90;;;;;;5070512;28;20051;-69
2023/04/07 12:15:58;;;;;;;;;;;14.80;99.90;;;;;;5059706;28;19921;-69
2023/04/07 12:18:24;;;;;;;;;;;14.80;99.90;;;;;;5064999;28;19948;-69
2023/04/07 12:20:49;;;;;;;;;;;14.80;99.90;;;;;;5071257;28;19916;-69
2023/04/07 12:23:15;;;;;;;;;;;14.80;99.90;;;;;;5074819;28;19913;-69
2023/04/07 12:25:41;;;;;;;;;;;14.80;99.90;;;;;;5077156;28;20386;-69
2023/04/07 12:28:08;;;;;;;;;;;14.80;99.90;;;;;;5070835;28;20190;-68
2023/04/07 12:30:35;;;;;;;;;;;14.80;99.90;;;;;;5073884;28;21658;-69
2023/04/07 12:33:02;;;;;;;;;;;14.60;99.90;;;;;;5075232;28;19983;-69
2023/04/07 12:35:28;;;;;;;;;;;14.50;99.90;;;;;;5077774;28;19913;-69
2023/04/07 12:37:53;;;;;;;;;;;14.50;99.90;;;;;;5063221;28;19928;-69
2023/04/07 12:40:20;;;;;;;;;;;14.40;99.90;;;;;;5065849;28;20433;-69
2023/04/07 12:42:45;;;;;;;;;;;14.40;99.90;;;;;;5068449;28;19917;-69
2023/04/07 12:45:11;;;;;;;;;;;14.40;99.90;;;;;;5069377;28;20247;-69
2023/04/07 12:47:36;;;;;;;;;;;14.40;99.90;;;;;;5059765;28;19970;-69
2023/04/07 12:50:02;;;;;;;;;;;14.40;99.90;;;;;;5067980;28;19912;-69
2023/04/07 12:52:28;;;;;;;;;;;14.40;99.90;;;;;;5074078;28;19931;-69
2023/04/07 12:54:54;;;;;;;;;;;14.40;99.90;;;;;;5064895;28;19953;-69
2023/04/07 12:57:19;;;;;;;;;;;14.40;99.90;;;;;;5067217;28;19916;-69
2023/04/07 12:59:45;;;;;;;;;;;14.40;99.90;;;;;;5071282;28;19908;-73
2023/04/07 13:02:12;;;;;;;;;;;14.40;99.90;;;;;;5068790;28;19920;-72
2023/04/07 13:04:42;;;;;;;;;;;14.50;99.90;;;;;;5071622;28;20267;-74
2023/04/07 13:07:08;;;;;;;;;;;14.50;99.90;;;;;;5069587;28;19917;-73
2023/04/07 13:09:34;;;;;;;;;;;14.60;99.90;;;;;;5071282;28;20401;-73
2023/04/07 13:11:59;;;;;;;;;;;14.60;99.90;;;;;;5077241;28;19912;-73
2023/04/07 13:14:25;;;;;;;;;;;14.70;99.90;;;;;;5076776;28;20390;-74
2023/04/07 13:16:51;;;;;;;;;;;14.80;99.90;;;;;;5076763;28;20021;-74
2023/04/07 13:19:17;;;;;;;;;;;14.90;99.90;;;;;;5077826;28;19913;-73
2023/04/07 13:21:43;;;;;;;;;;;14.90;99.90;;;;;;5077789;28;19908;-73
2023/04/07 13:24:08;;;;;;;;;;;14.90;99.90;;;;;;5076523;28;20012;-73
2023/04/07 13:26:34;;;;;;;;;;;15.00;99.90;;;;;;5076653;28;19976;-73
2023/04/07 13:29:00;;;;;;;;;;;15.00;99.90;;;;;;5077307;28;20011;-73
2023/04/07 13:31:27;;;;;;;;;;;15.00;99.90;;;;;;5076343;28;20424;-75
2023/04/07 13:33:52;;;;;;;;;;;15.10;99.90;;;;;;5076656;28;19992;-75
2023/04/07 13:36:18;;;;;;;;;;;15.10;99.90;;;;;;5077031;28;20417;-74
2023/04/07 13:38:44;;;;;;;;;;;15.20;99.90;;;;;;5076909;28;19909;-75
2023/04/07 13:41:10;;;;;;;;;;;15.20;99.90;;;;;;5077226;28;20235;-72
2023/04/07 13:43:35;;;;;;;;;;;15.10;99.90;;;;;;5075914;28;19909;-73
2023/04/07 13:46:01;;;;;;;;;;;15.00;99.90;;;;;;5075008;28;20389;-72
2023/04/07 13:48:27;;;;;;;;;;;15.00;99.90;;;;;;5077351;28;19909;-74
2023/04/07 13:50:52;;;;;;;;;;;15.00;99.90;;;;;;5077718;28;20043;-75
2023/04/07 13:53:18;;;;;;;;;;;15.10;99.90;;;;;;5075989;28;19966;-73
2023/04/07 13:55:44;;;;;;;;;;;15.10;99.90;;;;;;5076588;28;20350;-73
2023/04/07 13:58:09;;;;;;;;;;;14.90;99.90;;;;;;5075850;28;20000;-73
2023/04/07 14:00:37;;;;;;;;;;;14.90;99.90;;;;;;5077103;28;19908;-73
2023/04/07 14:03:03;;;;;;;;;;;14.80;99.90;;;;;;5077186;28;19915;-73
2023/04/07 14:05:28;;;;;;;;;;;14.80;99.90;;;;;;5077047;28;19913;-73
2023/04/07 14:07:54;;;;;;;;;;;14.80;99.90;;;;;;5078350;28;19908;-73
2023/04/07 14:10:20;;;;;;;;;;;14.80;99.90;;;;;;5077355;28;19912;-73
2023/04/07 14:12:46;;;;;;;;;;;14.70;99.90;;;;;;5075804;28;19931;-73
2023/04/07 14:15:11;;;;;;;;;;;14.70;99.90;;;;;;5076903;28;19915;-75
2023/04/07 14:17:37;;;;;;;;;;;14.70;99.90;;;;;;5077090;28;19970;-73
2023/04/07 14:20:03;;;;;;;;;;;14.80;99.90;;;;;;5077069;28;19930;-73
2023/04/07 14:22:28;;;;;;;;;;;14.70;99.90;;;;;;5075804;28;19908;-72